sensor_id;sensor_type;location;lat;lon;timestamp;pressure;altitude;pressure_sealevel;temperature;humidity
45939;BME280;31650;48.818;9.116;2022-10-16T00:06:40;97902.88;;;14.17;100.00
45939;BME280;31650;48.818;9.116;2022-10-16T00:21:40;97916.25;;;13.90;100.00
45939;BME280;31650;48.818;9.116;2022-10-16T00:36:41;97918.97;;;13.61;100.00
45939;BME280;31650;48.818;9.116;2022-10-16T01:21:51;97943.84;;;13.88;100.00
45939;BME280;31650;48.818;9.116;2022-10-16T01:36:54;97932.91;;;13.88;100.00
45939;BME280;31650;48.818;9.116;2022-10-16T01:51:57;97929.09;;;13.89;100.00
45939;BME280;31650;48.818;9.116;2022-10-16T02:06:59;97914.94;;;14.21;100.00
45939;BME280;31650;48.818;9.116;2022-10-16T02:22:00;97911.34;;;14.32;100.00
45939;BME280;31650;48.818;9.116;2022-10-16T02:37:03;97905.13;;;14.37;100.00
45939;BME280;31650;48.818;9.116;2022-10-16T02:52:04;97917.25;;;14.12;100.00
45939;BME280;31650;48.818;9.116;2022-10-16T03:07:04;97935.50;;;13.95;100.00
45939;BME280;31650;48.818;9.116;2022-10-16T03:22:05;97946.75;;;13.70;100.00
45939;BME280;31650;48.818;9.116;2022-10-16T03:37:05;97946.53;;;13.59;100.00
45939;BME280;31650;48.818;9.116;2022-10-16T03:52:05;97940.13;;;13.94;100.00
45939;BME280;31650;48.818;9.116;2022-10-16T04:07:05;97924.13;;;14.43;100.00
45939;BME280;31650;48.818;9.116;2022-10-16T04:22:06;97927.22;;;14.18;100.00
45939;BME280;31650;48.818;9.116;2022-10-16T04:37:06;97943.75;;;13.83;100.00
45939;BME280;31650;48.818;9.116;2022-10-16T04:52:06;97973.53;;;13.96;100.00
45939;BME280;31650;48.818;9.116;2022-10-16T05:07:06;97977.31;;;14.07;100.00
45939;BME280;31650;48.818;9.116;2022-10-16T05:22:07;97969.41;;;13.70;100.00
45939;BME280;31650;48.818;9.116;2022-10-16T05:37:07;97980.63;;;13.45;100.00
45939;BME280;31650;48.818;9.116;2022-10-16T05:52:08;97995.00;;;13.29;100.00
45939;BME280;31650;48.818;9.116;2022-10-16T06:07:08;98015.88;;;13.47;100.00
45939;BME280;31650;48.818;9.116;2022-10-16T06:22:08;98026.31;;;13.73;100.00
45939;BME280;31650;48.818;9.116;2022-10-16T06:37:09;98032.34;;;13.87;100.00
45939;BME280;31650;48.818;9.116;2022-10-16T06:52:09;98039.91;;;14.61;100.00
45939;BME280;31650;48.818;9.116;2022-10-16T07:07:09;98008.94;;;15.73;100.00
45939;BME280;31650;48.818;9.116;2022-10-16T07:22:09;98052.16;;;15.88;100.00
45939;BME280;31650;48.818;9.116;2022-10-16T07:37:10;98046.31;;;16.02;100.00
45939;BME280;31650;48.818;9.116;2022-10-16T07:52:10;98057.41;;;16.56;100.00
45939;BME280;31650;48.818;9.116;2022-10-16T08:07:10;98042.03;;;17.36;100.00
45939;BME280;31650;48.818;9.116;2022-10-16T08:22:11;98035.25;;;18.44;100.00
45939;BME280;31650;48.818;9.116;2022-10-16T08:37:11;98061.06;;;18.91;100.00
45939;BME280;31650;48.818;9.116;2022-10-16T08:52:13;98057.22;;;19.28;100.00
45939;BME280;31650;48.818;9.116;2022-10-16T09:22:29;98073.47;;;19.14;100.00
45939;BME280;31650;48.818;9.116;2022-10-16T09:37:31;98091.13;;;19.23;100.00
45939;BME280;31650;48.818;9.116;2022-10-16T09:52:32;98096.94;;;19.52;100.00
45939;BME280;31650;48.818;9.116;2022-10-16T10:07:34;98106.06;;;20.84;100.00
45939;BME280;31650;48.818;9.116;2022-10-16T10:53:02;98116.41;;;23.36;88.69
45939;BME280;31650;48.818;9.116;2022-10-16T11:38:40;98098.53;;;24.96;81.89
45939;BME280;31650;48.818;9.116;2022-10-16T12:08:51;98092.72;;;24.56;78.18
45939;BME280;31650;48.818;9.116;2022-10-16T12:23:52;98084.91;;;23.46;82.26
45939;BME280;31650;48.818;9.116;2022-10-16T12:38:54;98087.84;;;24.34;84.33
45939;BME280;31650;48.818;9.116;2022-10-16T13:09:16;98115.94;;;23.67;84.47
45939;BME280;31650;48.818;9.116;2022-10-16T13:39:36;98113.97;;;23.87;88.47
45939;BME280;31650;48.818;9.116;2022-10-16T13:54:37;98106.84;;;24.13;92.55
45939;BME280;31650;48.818;9.116;2022-10-16T14:09:37;98109.88;;;22.84;98.71
45939;BME280;31650;48.818;9.116;2022-10-16T14:24:39;98115.56;;;22.74;100.00
45939;BME280;31650;48.818;9.116;2022-10-16T14:39:39;98128.00;;;22.28;100.00
45939;BME280;31650;48.818;9.116;2022-10-16T14:54:40;98136.66;;;22.17;100.00
45939;BME280;31650;48.818;9.116;2022-10-16T15:09:41;98126.22;;;21.79;100.00
45939;BME280;31650;48.818;9.116;2022-10-16T15:24:41;98128.38;;;21.53;100.00
45939;BME280;31650;48.818;9.116;2022-10-16T15:39:41;98142.47;;;21.02;100.00
45939;BME280;31650;48.818;9.116;2022-10-16T15:54:42;98149.28;;;20.39;100.00
45939;BME280;31650;48.818;9.116;2022-10-16T16:09:42;98157.09;;;19.91;100.00
45939;BME280;31650;48.818;9.116;2022-10-16T16:24:43;98178.00;;;18.73;100.00
45939;BME280;31650;48.818;9.116;2022-10-16T16:39:44;98198.13;;;17.94;100.00
45939;BME280;31650;48.818;9.116;2022-10-16T16:54:44;98224.09;;;17.49;100.00
45939;BME280;31650;48.818;9.116;2022-10-16T17:09:51;98258.88;;;16.77;100.00
45939;BME280;31650;48.818;9.116;2022-10-16T17:24:51;98288.94;;;15.99;100.00
45939;BME280;31650;48.818;9.116;2022-10-16T17:39:53;98312.78;;;15.29;100.00
45939;BME280;31650;48.818;9.116;2022-10-16T17:54:53;98330.84;;;14.90;100.00
45939;BME280;31650;48.818;9.116;2022-10-16T18:09:55;98337.59;;;14.52;100.00
45939;BME280;31650;48.818;9.116;2022-10-16T18:24:55;98348.28;;;14.30;100.00
45939;BME280;31650;48.818;9.116;2022-10-16T18:39:57;98366.78;;;14.58;100.00
45939;BME280;31650;48.818;9.116;2022-10-16T18:54:57;98371.28;;;14.64;100.00
45939;BME280;31650;48.818;9.116;2022-10-16T19:09:58;98341.41;;;15.62;100.00
45939;BME280;31650;48.818;9.116;2022-10-16T19:24:58;98336.59;;;15.81;100.00
45939;BME280;31650;48.818;9.116;2022-10-16T19:39:58;98364.09;;;15.46;100.00
45939;BME280;31650;48.818;9.116;2022-10-16T19:54:58;98359.75;;;15.62;100.00
45939;BME280;31650;48.818;9.116;2022-10-16T20:09:59;98390.19;;;15.37;100.00
45939;BME280;31650;48.818;9.116;2022-10-16T20:24:59;98417.41;;;14.49;100.00
45939;BME280;31650;48.818;9.116;2022-10-16T20:39:59;98454.88;;;13.70;100.00
45939;BME280;31650;48.818;9.116;2022-10-16T20:54:59;98478.06;;;13.24;100.00
45939;BME280;31650;48.818;9.116;2022-10-16T21:09:59;98497.31;;;13.72;100.00
45939;BME280;31650;48.818;9.116;2022-10-16T21:25:00;98506.03;;;13.81;100.00
45939;BME280;31650;48.818;9.116;2022-10-16T21:40:00;98518.81;;;13.69;100.00
45939;BME280;31650;48.818;9.116;2022-10-16T21:55:01;98508.41;;;13.59;100.00
45939;BME280;31650;48.818;9.116;2022-10-16T22:10:01;98519.22;;;13.47;100.00
45939;BME280;31650;48.818;9.116;2022-10-16T22:25:01;98520.78;;;13.61;100.00
45939;BME280;31650;48.818;9.116;2022-10-16T22:40:02;98528.63;;;13.33;100.00
45939;BME280;31650;48.818;9.116;2022-10-16T22:55:02;98535.56;;;13.29;100.00
45939;BME280;31650;48.818;9.116;2022-10-16T23:10:03;98532.09;;;12.90;100.00
45939;BME280;31650;48.818;9.116;2022-10-16T23:25:04;98546.16;;;12.55;100.00
45939;BME280;31650;48.818;9.116;2022-10-16T23:40:05;98554.75;;;12.20;100.00
45939;BME280;31650;48.818;9.116;2022-10-16T23:55:05;98565.31;;;11.97;100.00
